»·PEaware :: DAL2259 KDCA-CYYZ

DAL2259 :: KDCA-CYYZ

FLIGHT INFORMATION

Flight Status: Arrived
Operator:
Delta Air Lines
More flights by this operator :: More flights under this callsign
Pilot: Scott W. (15065)
Aircraft: EMBRAER EMB-170/175
(E170)
More flights by this aircraft type
Origin: KDCA Ronald Reagan Washington Natl
United States
Destination: CYYZ Toronto/Pearson Intl
Canada
More flights between these airports :: More routes between these airports
Route: HORTO2 JERES J220 SFK/N0443F340 WOZEE LINNG8
File this flight plan on PilotEdge
Remarks: PBN / B2B3B4B5C1D1S2 DOF / 171210 REG / DAL2259 EET / KZNY0012 KZOB0032 CZYZ0050 OPR / DAL PER / C RMK / TCAS SIMBRIEF
Altitude:
(Current/Filed)
27,000ft
Speed:
(Current/Filed)
372kts
Departed: 10-Dec-17 09:54 AM
Arrived: 10-Dec-17 10:54 AM
Distance/Time
Traveled:
312nm/1:00
Distance/Time
To Go:
Arrived

Flight Plot

Page will automatically refresh every two minutes.

Flight plan parsing failed; only flown route is shown


Map Options




Map Legend


Flown Route
Filed Route
Departure Airport
Arrival Airport
Navaid (VOR, NDB)
Fix

Horizontal Profiles

Position Reports

Time Latitude Longitude Heading Altitude Ground
Speed
10-Dec-17 09:40 38.851465 -77.040749 340 21ft 0kts
10-Dec-17 09:40 38.851465 -77.040749 340 21ft 0kts
10-Dec-17 09:42 38.851465 -77.040749 340 21ft 0kts
10-Dec-17 09:42 38.851465 -77.040749 340 21ft 0kts
10-Dec-17 09:43 38.851465 -77.040749 340 21ft 0kts
10-Dec-17 09:44 38.851465 -77.040749 340 21ft 0kts
10-Dec-17 09:46 38.851465 -77.040749 340 21ft 0kts
10-Dec-17 09:46 38.851465 -77.040749 340 21ft 0kts
10-Dec-17 09:47 38.851387 -77.040712 339 21ft 2kts
10-Dec-17 09:48 38.851139 -77.040596 339 21ft 0kts
10-Dec-17 09:49 38.851139 -77.040596 339 21ft 0kts
10-Dec-17 09:50 38.850771 -77.039722 168 21ft 9kts
10-Dec-17 09:51 38.848072 -77.039482 172 21ft 12kts
10-Dec-17 09:52 38.843674 -77.039733 151 21ft 18kts
10-Dec-17 09:53 38.842820 -77.038045 115 21ft 0kts
10-Dec-17 09:54 38.842820 -77.038045 115 21ft 0kts
10-Dec-17 09:55 38.842820 -77.038045 115 21ft 0kts
10-Dec-17 09:56 38.842820 -77.038045 115 21ft 0kts
10-Dec-17 09:57 38.842820 -77.038045 115 21ft 0kts
10-Dec-17 09:58 38.842685 -77.037677 115 21ft 9kts
10-Dec-17 09:59 38.857292 -77.038366 353 145ft 168kts
10-Dec-17 10:00 38.901194 -77.073668 300 2592ft 214kts
10-Dec-17 10:01 38.945100 -77.135120 317 5533ft 255kts
10-Dec-17 10:02 38.984184 -77.206918 282 8553ft 256kts
10-Dec-17 10:03 38.995377 -77.300380 293 11411ft 296kts
10-Dec-17 10:04 39.049091 -77.385265 314 13947ft 317kts
10-Dec-17 10:05 39.117435 -77.452080 338 16358ft 337kts
10-Dec-17 10:06 39.208335 -77.463070 354 18716ft 362kts
10-Dec-17 10:07 39.310299 -77.460545 354 21112ft 379kts
10-Dec-17 10:08 39.415721 -77.458247 354 23068ft 390kts
10-Dec-17 10:09 39.525205 -77.456576 353 25037ft 403kts
10-Dec-17 10:10 39.638600 -77.455082 353 26723ft 417kts
10-Dec-17 10:11 39.755035 -77.452865 353 28189ft 427kts
10-Dec-17 10:12 39.874855 -77.450822 353 29661ft 438kts
10-Dec-17 10:13 39.997520 -77.449218 353 31052ft 450kts
10-Dec-17 10:14 40.117632 -77.446745 353 31069ft 451kts
10-Dec-17 10:15 40.237303 -77.444574 353 31051ft 450kts
10-Dec-17 10:16 40.361835 -77.442246 353 31021ft 450kts
10-Dec-17 10:17 40.485607 -77.440295 353 31022ft 450kts
10-Dec-17 10:18 40.609967 -77.438571 353 31015ft 450kts
10-Dec-17 10:19 40.734799 -77.436407 353 31014ft 450kts
10-Dec-17 10:20 40.859386 -77.434179 353 31014ft 450kts
10-Dec-17 10:21 40.983309 -77.431764 353 31013ft 450kts
10-Dec-17 10:22 41.103766 -77.429841 353 31001ft 450kts
10-Dec-17 10:23 41.215257 -77.428108 353 30997ft 451kts
10-Dec-17 10:24 41.339774 -77.425872 353 30993ft 450kts
10-Dec-17 10:25 41.464619 -77.423394 353 30982ft 451kts
10-Dec-17 10:26 41.589346 -77.421238 353 30932ft 450kts
10-Dec-17 10:27 41.710672 -77.435535 331 30909ft 429kts
10-Dec-17 10:28 41.810701 -77.514692 318 30879ft 416kts
10-Dec-17 10:29 41.905115 -77.603885 319 30874ft 417kts
10-Dec-17 10:30 41.999251 -77.689548 319 30884ft 417kts
10-Dec-17 10:31 42.095348 -77.776456 319 30885ft 417kts
10-Dec-17 10:32 42.179578 -77.851303 319 30881ft 416kts
10-Dec-17 10:33 42.268384 -77.948402 312 30881ft 411kts
10-Dec-17 10:34 42.353003 -78.051012 312 30879ft 411kts
10-Dec-17 10:35 42.438923 -78.152527 313 30877ft 411kts
10-Dec-17 10:36 42.524302 -78.252680 313 30868ft 412kts
10-Dec-17 10:37 42.609904 -78.353361 313 29778ft 399kts
10-Dec-17 10:38 42.691271 -78.449478 313 28240ft 385kts
10-Dec-17 10:39 42.770445 -78.543579 313 26704ft 375kts
10-Dec-17 10:40 42.847560 -78.635493 313 25085ft 365kts
10-Dec-17 10:41 42.916024 -78.717912 312 23529ft 354kts
10-Dec-17 10:42 42.999760 -78.789258 325 21846ft 357kts
10-Dec-17 10:43 43.086865 -78.849765 326 20161ft 349kts
10-Dec-17 10:44 43.169045 -78.907196 326 18521ft 340kts
10-Dec-17 10:45 43.251494 -78.965687 326 16824ft 331kts
10-Dec-17 10:46 43.331227 -79.022997 326 15128ft 321kts
10-Dec-17 10:47 43.408796 -79.079060 326 13424ft 311kts
10-Dec-17 10:48 43.484067 -79.133640 326 11794ft 303kts
10-Dec-17 10:49 43.555935 -79.185813 326 10157ft 282kts
10-Dec-17 10:50 43.623288 -79.234921 326 8536ft 270kts
10-Dec-17 10:51 43.688149 -79.282394 326 6932ft 264kts
10-Dec-17 10:52 43.751864 -79.329132 329 5445ft 254kts
10-Dec-17 10:53 43.809542 -79.371427 331 4906ft 214kts
10-Dec-17 10:54 43.819537 -79.439999 252 4748ft 202kts
10-Dec-17 10:55 43.774924 -79.517269 230 2956ft 241kts
10-Dec-17 10:56 43.738799 -79.570042 229 1821ft 148kts
10-Dec-17 10:58 43.715230 -79.604362 228 1167ft 115kts
10-Dec-17 10:59 43.691933 -79.638184 227 563ft 118kts
10-Dec-17 11:00 43.680806 -79.650600 104 549ft 5kts
10-Dec-17 11:01 43.682741 -79.645299 137 549ft 22kts
10-Dec-17 11:02 43.675675 -79.636070 141 549ft 38kts
10-Dec-17 11:03 43.671615 -79.630779 138 549ft 28kts
10-Dec-17 11:04 43.669220 -79.627118 59 549ft 11kts
10-Dec-17 11:05 43.672961 -79.621457 46 549ft 19kts
10-Dec-17 11:06 43.677459 -79.616499 347 549ft 20kts

Navigation Log

Ident Type
Flight plan parsing failed, navigation log unavailable